N147EK ENTC-ENHV
Flight info
| Callsign | N147EK |
|---|---|
| Flight time | 1h 21m |
| Altitude | 7000 |
| Route | 694620N0190723E DCT 695120N0195207E 700021N0200815E DCT LITPI DCT HK DCT HLN |
| Aircraft | C208/L-SDFGR/C |
Departure
| Time | 2026-04-17 02:59 |
|---|---|
| Airport | Tromsø Airport (ENTC) |
Arrival
| Time | 2026-04-17 04:21 |
|---|---|
| Airport | Honningsvåg Airport, Valan (ENHV) |
| Time | Latitude | Longitude | Altitude | Speed | Heading |
|---|---|---|---|---|---|
| 2026-04-17 02:46 | 69.67795 | 18.90782 | 33 ft | 0 kts | 283° |
| 2026-04-17 02:46 | 69.67795 | 18.90775 | 33 ft | 3 kts | 273° |
| 2026-04-17 02:47 | 69.67789 | 18.90855 | 33 ft | 11 kts | 93° |
| 2026-04-17 02:47 | 69.67786 | 18.90896 | 33 ft | 0 kts | 103° |
| 2026-04-17 02:49 | 69.67783 | 18.90937 | 33 ft | 4 kts | 104° |
| 2026-04-17 02:49 | 69.67778 | 18.90987 | 33 ft | 2 kts | 107° |
| 2026-04-17 02:49 | 69.67783 | 18.91101 | 33 ft | 8 kts | 29° |
| 2026-04-17 02:49 | 69.67810 | 18.91135 | 33 ft | 6 kts | 22° |
| 2026-04-17 02:50 | 69.67868 | 18.91190 | 33 ft | 7 kts | 7° |
| 2026-04-17 02:50 | 69.67945 | 18.91240 | 33 ft | 1 kts | 28° |
| 2026-04-17 02:50 | 69.67949 | 18.91246 | 33 ft | 4 kts | 22° |
| 2026-04-17 02:50 | 69.68016 | 18.91294 | 33 ft | 13 kts | 12° |
| 2026-04-17 02:51 | 69.68113 | 18.91362 | 33 ft | 0 kts | 26° |
| 2026-04-17 02:51 | 69.68121 | 18.91368 | 33 ft | 6 kts | 8° |
| 2026-04-17 02:52 | 69.68163 | 18.91388 | 32 ft | 0 kts | 14° |
| 2026-04-17 02:52 | 69.68200 | 18.91415 | 30 ft | 0 kts | 16° |
| 2026-04-17 02:52 | 69.68205 | 18.91420 | 30 ft | 7 kts | 15° |
| 2026-04-17 02:52 | 69.68344 | 18.91501 | 26 ft | 26 kts | 14° |
| 2026-04-17 02:53 | 69.68546 | 18.91567 | 24 ft | 27 kts | 13° |
| 2026-04-17 02:53 | 69.68664 | 18.91644 | 19 ft | 0 kts | 15° |
| 2026-04-17 02:54 | 69.68666 | 18.91646 | 19 ft | 1 kts | 15° |
| 2026-04-17 02:55 | 69.68667 | 18.91646 | 19 ft | 0 kts | 15° |
| 2026-04-17 02:57 | 69.68678 | 18.91656 | 19 ft | 7 kts | 16° |
| 2026-04-17 02:57 | 69.68683 | 18.91659 | 19 ft | 0 kts | 16° |
| 2026-04-17 02:58 | 69.68683 | 18.91660 | 19 ft | 2 kts | 14° |
| 2026-04-17 02:58 | 69.68742 | 18.91697 | 19 ft | 11 kts | 14° |
| 2026-04-17 02:58 | 69.68767 | 18.91960 | 19 ft | 20 kts | 105° |
| 2026-04-17 02:58 | 69.68716 | 18.92130 | 20 ft | 18 kts | 189° |
| 2026-04-17 02:59 | 69.68409 | 18.91933 | 29 ft | 73 kts | 190° |
| 2026-04-17 02:59 | 69.67843 | 18.91596 | 258 ft | 87 kts | 189° |
| 2026-04-17 02:59 | 69.67241 | 18.91202 | 545 ft | 88 kts | 191° |
| 2026-04-17 02:59 | 69.66678 | 18.90766 | 821 ft | 82 kts | 193° |
| 2026-04-17 03:00 | 69.66115 | 18.90281 | 1027 ft | 86 kts | 190° |
| 2026-04-17 03:00 | 69.65516 | 18.89814 | 1227 ft | 93 kts | 194° |
| 2026-04-17 03:00 | 69.64881 | 18.89401 | 1498 ft | 90 kts | 185° |
| 2026-04-17 03:00 | 69.64409 | 18.90117 | 1745 ft | 88 kts | 118° |
| 2026-04-17 03:01 | 69.64190 | 18.91826 | 1924 ft | 96 kts | 103° |
| 2026-04-17 03:01 | 69.64221 | 18.93732 | 2158 ft | 99 kts | 66° |
| 2026-04-17 03:01 | 69.64705 | 18.95147 | 2410 ft | 99 kts | 35° |
| 2026-04-17 03:01 | 69.65272 | 18.96231 | 2675 ft | 97 kts | 37° |
| 2026-04-17 03:02 | 69.65852 | 18.97426 | 2823 ft | 105 kts | 38° |
| 2026-04-17 03:02 | 69.66462 | 18.98704 | 2983 ft | 111 kts | 38° |
| 2026-04-17 03:02 | 69.67095 | 19.00043 | 3143 ft | 115 kts | 38° |
| 2026-04-17 03:02 | 69.67744 | 19.01424 | 3299 ft | 117 kts | 38° |
| 2026-04-17 03:03 | 69.68404 | 19.02825 | 3452 ft | 119 kts | 38° |
| 2026-04-17 03:03 | 69.69071 | 19.04242 | 3609 ft | 120 kts | 38° |
| 2026-04-17 03:03 | 69.69742 | 19.05668 | 3761 ft | 120 kts | 38° |
| 2026-04-17 03:03 | 69.70414 | 19.07108 | 3919 ft | 120 kts | 38° |
| 2026-04-17 03:04 | 69.71086 | 19.08552 | 4070 ft | 120 kts | 38° |
| 2026-04-17 03:04 | 69.71755 | 19.10004 | 4221 ft | 120 kts | 38° |
| 2026-04-17 03:04 | 69.72424 | 19.11454 | 4377 ft | 120 kts | 38° |
| 2026-04-17 03:04 | 69.73091 | 19.12894 | 4534 ft | 120 kts | 38° |
| 2026-04-17 03:05 | 69.73734 | 19.14413 | 4691 ft | 119 kts | 47° |
| 2026-04-17 03:05 | 69.74236 | 19.16301 | 4854 ft | 119 kts | 56° |
| 2026-04-17 03:05 | 69.74691 | 19.18290 | 5020 ft | 119 kts | 58° |
| 2026-04-17 03:05 | 69.75127 | 19.20303 | 5175 ft | 118 kts | 58° |
| 2026-04-17 03:06 | 69.75554 | 19.22339 | 5317 ft | 118 kts | 59° |
| 2026-04-17 03:06 | 69.75977 | 19.24377 | 5494 ft | 119 kts | 59° |
| 2026-04-17 03:06 | 69.76401 | 19.26442 | 5647 ft | 119 kts | 59° |
| 2026-04-17 03:06 | 69.76825 | 19.28507 | 5799 ft | 119 kts | 59° |
| 2026-04-17 03:07 | 69.77246 | 19.30575 | 5954 ft | 120 kts | 59° |
| 2026-04-17 03:07 | 69.77667 | 19.32648 | 6113 ft | 119 kts | 59° |
| 2026-04-17 03:07 | 69.78086 | 19.34720 | 6269 ft | 119 kts | 59° |
| 2026-04-17 03:07 | 69.78502 | 19.36786 | 6426 ft | 119 kts | 59° |
| 2026-04-17 03:08 | 69.78913 | 19.38867 | 6584 ft | 119 kts | 60° |
| 2026-04-17 03:08 | 69.79320 | 19.40950 | 6741 ft | 119 kts | 60° |
| 2026-04-17 03:08 | 69.79722 | 19.43038 | 6891 ft | 119 kts | 60° |
| 2026-04-17 03:08 | 69.80119 | 19.45129 | 7041 ft | 118 kts | 60° |
| 2026-04-17 03:09 | 69.80515 | 19.47227 | 7184 ft | 120 kts | 60° |
| 2026-04-17 03:09 | 69.80919 | 19.49369 | 7271 ft | 124 kts | 60° |
| 2026-04-17 03:09 | 69.81332 | 19.51573 | 7317 ft | 129 kts | 60° |
| 2026-04-17 03:09 | 69.81766 | 19.53889 | 7336 ft | 133 kts | 60° |
| 2026-04-17 03:10 | 69.82211 | 19.56267 | 7346 ft | 136 kts | 60° |
| 2026-04-17 03:10 | 69.82661 | 19.58684 | 7345 ft | 137 kts | 59° |
| 2026-04-17 03:10 | 69.83119 | 19.61119 | 7348 ft | 138 kts | 59° |
| 2026-04-17 03:10 | 69.83580 | 19.63565 | 7348 ft | 139 kts | 59° |
| 2026-04-17 03:11 | 69.84044 | 19.66023 | 7347 ft | 139 kts | 59° |
| 2026-04-17 03:11 | 69.84508 | 19.68479 | 7349 ft | 139 kts | 60° |
| 2026-04-17 03:11 | 69.84968 | 19.70937 | 7349 ft | 138 kts | 60° |
| 2026-04-17 03:11 | 69.85432 | 19.73385 | 7349 ft | 139 kts | 60° |
| 2026-04-17 03:12 | 69.85897 | 19.75837 | 7352 ft | 139 kts | 59° |
| 2026-04-17 03:12 | 69.86364 | 19.78294 | 7352 ft | 139 kts | 59° |
| 2026-04-17 03:12 | 69.86830 | 19.80753 | 7353 ft | 139 kts | 59° |
| 2026-04-17 03:12 | 69.87294 | 19.83212 | 7352 ft | 139 kts | 60° |
| 2026-04-17 03:13 | 69.87774 | 19.85651 | 7350 ft | 139 kts | 56° |
| 2026-04-17 03:13 | 69.88361 | 19.87879 | 7346 ft | 142 kts | 48° |
| 2026-04-17 03:13 | 69.89029 | 19.90133 | 7346 ft | 152 kts | 48° |
| 2026-04-17 03:13 | 69.89729 | 19.92535 | 7351 ft | 158 kts | 49° |
| 2026-04-17 03:14 | 69.90441 | 19.95016 | 7359 ft | 161 kts | 49° |
| 2026-04-17 03:14 | 69.91159 | 19.97544 | 7358 ft | 164 kts | 50° |
| 2026-04-17 03:14 | 69.91879 | 20.00085 | 7357 ft | 165 kts | 50° |
| 2026-04-17 03:14 | 69.92609 | 20.02673 | 7358 ft | 166 kts | 49° |
| 2026-04-17 03:15 | 69.93340 | 20.05272 | 7352 ft | 166 kts | 50° |
| 2026-04-17 03:15 | 69.94070 | 20.07868 | 7360 ft | 166 kts | 50° |
| 2026-04-17 03:15 | 69.94799 | 20.10465 | 7361 ft | 166 kts | 50° |
| 2026-04-17 03:15 | 69.95531 | 20.13075 | 7362 ft | 166 kts | 50° |
| 2026-04-17 03:16 | 69.96265 | 20.15679 | 7362 ft | 166 kts | 49° |
| 2026-04-17 03:16 | 69.97002 | 20.18267 | 7363 ft | 166 kts | 49° |
| 2026-04-17 03:16 | 69.97738 | 20.20857 | 7364 ft | 166 kts | 49° |
| 2026-04-17 03:16 | 69.98474 | 20.23466 | 7362 ft | 166 kts | 50° |
| 2026-04-17 03:17 | 69.99205 | 20.26080 | 7361 ft | 166 kts | 50° |
| 2026-04-17 03:17 | 69.99936 | 20.28704 | 7363 ft | 166 kts | 50° |
| 2026-04-17 03:17 | 70.00663 | 20.31316 | 7362 ft | 166 kts | 50° |
| 2026-04-17 03:17 | 70.01392 | 20.33937 | 7362 ft | 166 kts | 50° |
| 2026-04-17 03:18 | 70.02119 | 20.36564 | 7360 ft | 166 kts | 50° |
| 2026-04-17 03:18 | 70.02846 | 20.39188 | 7362 ft | 166 kts | 50° |
| 2026-04-17 03:18 | 70.03573 | 20.41818 | 7362 ft | 166 kts | 50° |
| 2026-04-17 03:18 | 70.04300 | 20.44448 | 7360 ft | 166 kts | 50° |
| 2026-04-17 03:19 | 70.05027 | 20.47084 | 7360 ft | 166 kts | 50° |
| 2026-04-17 03:19 | 70.05756 | 20.49730 | 7365 ft | 167 kts | 50° |
| 2026-04-17 03:19 | 70.06483 | 20.52375 | 7360 ft | 167 kts | 50° |
| 2026-04-17 03:19 | 70.07209 | 20.55020 | 7359 ft | 166 kts | 50° |
| 2026-04-17 03:20 | 70.07926 | 20.57631 | 7359 ft | 167 kts | 50° |
| 2026-04-17 03:20 | 70.08660 | 20.60307 | 7363 ft | 166 kts | 50° |
| 2026-04-17 03:20 | 70.09358 | 20.62958 | 7366 ft | 166 kts | 51° |
| 2026-04-17 03:20 | 70.10118 | 20.65506 | 7362 ft | 166 kts | 48° |
| 2026-04-17 03:21 | 70.10864 | 20.68069 | 7369 ft | 164 kts | 49° |
| 2026-04-17 03:21 | 70.11591 | 20.70619 | 7374 ft | 162 kts | 49° |
| 2026-04-17 03:21 | 70.12309 | 20.73156 | 7367 ft | 161 kts | 49° |
| 2026-04-17 03:21 | 70.13016 | 20.75674 | 7365 ft | 159 kts | 50° |
| 2026-04-17 03:22 | 70.13719 | 20.78184 | 7360 ft | 159 kts | 50° |
| 2026-04-17 03:22 | 70.14421 | 20.80682 | 7361 ft | 158 kts | 49° |
| 2026-04-17 03:22 | 70.15121 | 20.83175 | 7363 ft | 158 kts | 49° |
| 2026-04-17 03:22 | 70.15821 | 20.85667 | 7364 ft | 158 kts | 50° |
| 2026-04-17 03:23 | 70.16519 | 20.88165 | 7366 ft | 158 kts | 50° |
| 2026-04-17 03:23 | 70.17201 | 20.90699 | 7364 ft | 158 kts | 51° |
| 2026-04-17 03:23 | 70.17868 | 20.93269 | 7364 ft | 158 kts | 52° |
| 2026-04-17 03:23 | 70.18527 | 20.95856 | 7365 ft | 158 kts | 52° |
| 2026-04-17 03:24 | 70.19182 | 20.98452 | 7366 ft | 158 kts | 52° |
| 2026-04-17 03:24 | 70.19836 | 21.01052 | 7366 ft | 158 kts | 52° |
| 2026-04-17 03:24 | 70.20490 | 21.03651 | 7365 ft | 158 kts | 52° |
| 2026-04-17 03:24 | 70.21147 | 21.06260 | 7365 ft | 158 kts | 52° |
| 2026-04-17 03:25 | 70.21803 | 21.08867 | 7365 ft | 158 kts | 52° |
| 2026-04-17 03:25 | 70.22457 | 21.11466 | 7365 ft | 158 kts | 52° |
| 2026-04-17 03:25 | 70.23115 | 21.14071 | 7367 ft | 158 kts | 52° |
| 2026-04-17 03:25 | 70.23774 | 21.16675 | 7367 ft | 158 kts | 52° |
| 2026-04-17 03:26 | 70.24425 | 21.19242 | 7372 ft | 158 kts | 52° |
| 2026-04-17 03:26 | 70.25087 | 21.21859 | 7330 ft | 161 kts | 52° |
| 2026-04-17 03:26 | 70.25771 | 21.24557 | 7213 ft | 167 kts | 52° |
| 2026-04-17 03:26 | 70.26478 | 21.27325 | 7080 ft | 170 kts | 52° |
| 2026-04-17 03:27 | 70.27200 | 21.30125 | 6949 ft | 172 kts | 52° |
| 2026-04-17 03:27 | 70.27932 | 21.32956 | 6822 ft | 173 kts | 52° |
| 2026-04-17 03:27 | 70.28668 | 21.35792 | 6696 ft | 174 kts | 52° |
| 2026-04-17 03:27 | 70.29406 | 21.38629 | 6573 ft | 174 kts | 52° |
| 2026-04-17 03:28 | 70.30124 | 21.41430 | 6419 ft | 159 kts | 52° |
| 2026-04-17 03:28 | 70.30725 | 21.43842 | 6275 ft | 134 kts | 52° |
| 2026-04-17 03:28 | 70.31251 | 21.45919 | 6135 ft | 119 kts | 52° |
| 2026-04-17 03:28 | 70.31738 | 21.47771 | 5992 ft | 110 kts | 44° |
| 2026-04-17 03:29 | 70.32323 | 21.49182 | 5867 ft | 110 kts | 39° |
| 2026-04-17 03:29 | 70.32906 | 21.50716 | 5750 ft | 114 kts | 44° |
| 2026-04-17 03:29 | 70.33487 | 21.52342 | 5635 ft | 116 kts | 43° |
| 2026-04-17 03:29 | 70.34095 | 21.53942 | 5514 ft | 118 kts | 41° |
| 2026-04-17 03:30 | 70.34709 | 21.55561 | 5392 ft | 118 kts | 43° |
| 2026-04-17 03:30 | 70.35321 | 21.57205 | 5266 ft | 119 kts | 43° |
| 2026-04-17 03:30 | 70.35932 | 21.58828 | 5138 ft | 120 kts | 43° |
| 2026-04-17 03:30 | 70.36554 | 21.60478 | 5002 ft | 120 kts | 43° |
| 2026-04-17 03:31 | 70.37177 | 21.62128 | 4867 ft | 120 kts | 44° |
| 2026-04-17 03:31 | 70.37797 | 21.63778 | 4732 ft | 119 kts | 44° |
| 2026-04-17 03:31 | 70.38416 | 21.65427 | 4582 ft | 119 kts | 44° |
| 2026-04-17 03:31 | 70.39032 | 21.67066 | 4453 ft | 119 kts | 44° |
| 2026-04-17 03:32 | 70.39440 | 21.68153 | 4363 ft | 119 kts | 44° |
| 2026-04-17 03:32 | 70.40055 | 21.69794 | 4227 ft | 119 kts | 44° |
| 2026-04-17 03:32 | 70.40669 | 21.71432 | 4097 ft | 118 kts | 45° |
| 2026-04-17 03:32 | 70.41278 | 21.73063 | 3967 ft | 117 kts | 45° |
| 2026-04-17 03:33 | 70.41885 | 21.74687 | 3815 ft | 118 kts | 45° |
| 2026-04-17 03:33 | 70.42498 | 21.76326 | 3657 ft | 118 kts | 46° |
| 2026-04-17 03:33 | 70.43110 | 21.77966 | 3503 ft | 118 kts | 46° |
| 2026-04-17 03:33 | 70.43720 | 21.79606 | 3346 ft | 118 kts | 46° |
| 2026-04-17 03:34 | 70.44331 | 21.81242 | 3182 ft | 118 kts | 45° |
| 2026-04-17 03:34 | 70.44940 | 21.82875 | 3020 ft | 118 kts | 46° |
| 2026-04-17 03:34 | 70.45545 | 21.84504 | 2865 ft | 118 kts | 46° |
| 2026-04-17 03:34 | 70.46156 | 21.86148 | 2701 ft | 117 kts | 46° |
| 2026-04-17 03:35 | 70.46761 | 21.87779 | 2536 ft | 117 kts | 46° |
| 2026-04-17 03:35 | 70.47368 | 21.89409 | 2379 ft | 116 kts | 46° |
| 2026-04-17 03:35 | 70.47941 | 21.90976 | 2214 ft | 108 kts | 46° |
| 2026-04-17 03:35 | 70.48487 | 21.92444 | 2044 ft | 103 kts | 46° |
| 2026-04-17 03:36 | 70.49347 | 21.95818 | 1576 ft | 106 kts | 67° |
| 2026-04-17 03:36 | 70.49624 | 21.97905 | 1310 ft | 106 kts | 75° |
| 2026-04-17 03:36 | 70.49771 | 21.99928 | 1279 ft | 86 kts | 79° |
| 2026-04-17 03:37 | 70.49929 | 22.01556 | 1154 ft | 83 kts | 71° |
| 2026-04-17 03:37 | 70.50112 | 22.03235 | 968 ft | 83 kts | 77° |
| 2026-04-17 03:37 | 70.50174 | 22.04871 | 869 ft | 77 kts | 91° |
| 2026-04-17 03:37 | 70.50071 | 22.06439 | 749 ft | 79 kts | 109° |
| 2026-04-17 03:38 | 70.49806 | 22.07865 | 630 ft | 80 kts | 118° |
| 2026-04-17 03:38 | 70.49537 | 22.09314 | 484 ft | 77 kts | 117° |
| 2026-04-17 03:38 | 70.49281 | 22.10664 | 368 ft | 73 kts | 117° |
| 2026-04-17 03:38 | 70.49033 | 22.11994 | 175 ft | 74 kts | 117° |
| 2026-04-17 03:39 | 70.48789 | 22.13315 | 41 ft | 69 kts | 117° |
| 2026-04-17 03:39 | 70.48571 | 22.14504 | 26 ft | 71 kts | 118° |
| 2026-04-17 03:39 | 70.48330 | 22.15968 | 259 ft | 86 kts | 111° |
| 2026-04-17 03:39 | 70.48142 | 22.17698 | 582 ft | 93 kts | 104° |
| 2026-04-17 03:40 | 70.48003 | 22.19640 | 861 ft | 99 kts | 98° |
| 2026-04-17 03:40 | 70.47901 | 22.21712 | 1173 ft | 102 kts | 98° |
| 2026-04-17 03:40 | 70.47817 | 22.23820 | 1564 ft | 100 kts | 94° |
| 2026-04-17 03:40 | 70.47817 | 22.25845 | 2031 ft | 95 kts | 86° |
| 2026-04-17 03:41 | 70.47896 | 22.27755 | 2497 ft | 90 kts | 80° |
| 2026-04-17 03:41 | 70.48052 | 22.29592 | 2796 ft | 99 kts | 73° |
| 2026-04-17 03:41 | 70.48300 | 22.31680 | 2992 ft | 112 kts | 70° |
| 2026-04-17 03:41 | 70.48652 | 22.33846 | 3192 ft | 120 kts | 60° |
| 2026-04-17 03:42 | 70.49061 | 22.36095 | 3379 ft | 126 kts | 65° |
| 2026-04-17 03:42 | 70.49431 | 22.38500 | 3566 ft | 129 kts | 66° |
| 2026-04-17 03:42 | 70.49798 | 22.40932 | 3736 ft | 130 kts | 66° |
| 2026-04-17 03:42 | 70.50172 | 22.43413 | 3918 ft | 132 kts | 66° |
| 2026-04-17 03:43 | 70.50552 | 22.45974 | 4144 ft | 135 kts | 65° |
| 2026-04-17 03:43 | 70.50973 | 22.48500 | 4333 ft | 136 kts | 63° |
| 2026-04-17 03:43 | 70.51405 | 22.51032 | 4430 ft | 141 kts | 62° |
| 2026-04-17 03:43 | 70.51805 | 22.53709 | 4643 ft | 133 kts | 63° |
| 2026-04-17 03:44 | 70.52218 | 22.56349 | 4683 ft | 140 kts | 62° |
| 2026-04-17 03:44 | 70.52631 | 22.58942 | 4883 ft | 136 kts | 64° |
| 2026-04-17 03:44 | 70.53000 | 22.61519 | 5066 ft | 134 kts | 64° |
| 2026-04-17 03:44 | 70.53382 | 22.64054 | 5242 ft | 133 kts | 62° |
| 2026-04-17 03:45 | 70.53774 | 22.66546 | 5416 ft | 132 kts | 62° |
| 2026-04-17 03:45 | 70.54166 | 22.69041 | 5592 ft | 132 kts | 62° |
| 2026-04-17 03:45 | 70.54557 | 22.71533 | 5771 ft | 133 kts | 62° |
| 2026-04-17 03:45 | 70.54949 | 22.74047 | 5959 ft | 133 kts | 62° |
| 2026-04-17 03:46 | 70.55343 | 22.76585 | 6146 ft | 134 kts | 62° |
| 2026-04-17 03:46 | 70.55735 | 22.79132 | 6328 ft | 135 kts | 62° |
| 2026-04-17 03:46 | 70.56128 | 22.81708 | 6516 ft | 136 kts | 62° |
| 2026-04-17 03:46 | 70.56525 | 22.84293 | 6703 ft | 137 kts | 61° |
| 2026-04-17 03:47 | 70.56924 | 22.86919 | 6893 ft | 139 kts | 62° |
| 2026-04-17 03:47 | 70.57303 | 22.89445 | 7061 ft | 128 kts | 61° |
| 2026-04-17 03:47 | 70.57676 | 22.91881 | 7221 ft | 131 kts | 61° |
| 2026-04-17 03:47 | 70.58071 | 22.94434 | 7307 ft | 139 kts | 60° |
| 2026-04-17 03:48 | 70.58496 | 22.97155 | 7355 ft | 148 kts | 61° |
| 2026-04-17 03:48 | 70.58940 | 23.00046 | 7363 ft | 155 kts | 62° |
| 2026-04-17 03:48 | 70.59393 | 23.03031 | 7367 ft | 159 kts | 62° |
| 2026-04-17 03:48 | 70.59854 | 23.06071 | 7365 ft | 161 kts | 62° |
| 2026-04-17 03:49 | 70.60319 | 23.09136 | 7362 ft | 161 kts | 62° |
| 2026-04-17 03:49 | 70.60783 | 23.12220 | 7365 ft | 162 kts | 62° |
| 2026-04-17 03:49 | 70.61246 | 23.15273 | 7371 ft | 163 kts | 62° |
| 2026-04-17 03:49 | 70.61715 | 23.18373 | 7374 ft | 163 kts | 62° |
| 2026-04-17 03:50 | 70.62184 | 23.21482 | 7370 ft | 163 kts | 62° |
| 2026-04-17 03:50 | 70.62653 | 23.24593 | 7377 ft | 163 kts | 62° |
| 2026-04-17 03:50 | 70.63119 | 23.27697 | 7373 ft | 163 kts | 62° |
| 2026-04-17 03:50 | 70.63588 | 23.30827 | 7370 ft | 163 kts | 62° |
| 2026-04-17 03:51 | 70.64048 | 23.33905 | 7354 ft | 157 kts | 62° |
| 2026-04-17 03:51 | 70.64481 | 23.36825 | 7361 ft | 149 kts | 62° |
| 2026-04-17 03:51 | 70.64902 | 23.39655 | 7358 ft | 147 kts | 62° |
| 2026-04-17 03:51 | 70.65319 | 23.42448 | 7355 ft | 145 kts | 62° |
| 2026-04-17 03:52 | 70.65728 | 23.45208 | 7348 ft | 144 kts | 62° |
| 2026-04-17 03:52 | 70.66139 | 23.47961 | 7351 ft | 144 kts | 62° |
| 2026-04-17 03:52 | 70.66546 | 23.50715 | 7351 ft | 145 kts | 62° |
| 2026-04-17 03:52 | 70.66980 | 23.53444 | 7350 ft | 143 kts | 57° |
| 2026-04-17 03:53 | 70.67401 | 23.56177 | 7346 ft | 144 kts | 62° |
| 2026-04-17 03:53 | 70.67780 | 23.58974 | 7344 ft | 144 kts | 62° |
| 2026-04-17 03:53 | 70.68173 | 23.61698 | 7348 ft | 143 kts | 60° |
| 2026-04-17 03:53 | 70.68588 | 23.64436 | 7344 ft | 143 kts | 60° |
| 2026-04-17 03:54 | 70.68997 | 23.67161 | 7344 ft | 142 kts | 60° |
| 2026-04-17 03:54 | 70.69406 | 23.69888 | 7349 ft | 143 kts | 60° |
| 2026-04-17 03:54 | 70.69816 | 23.72631 | 7350 ft | 143 kts | 60° |
| 2026-04-17 03:54 | 70.70224 | 23.75385 | 7347 ft | 144 kts | 60° |
| 2026-04-17 03:55 | 70.70627 | 23.78117 | 7344 ft | 145 kts | 61° |
| 2026-04-17 03:55 | 70.71040 | 23.80934 | 7347 ft | 145 kts | 61° |
| 2026-04-17 03:55 | 70.71447 | 23.83711 | 7349 ft | 144 kts | 61° |
| 2026-04-17 03:55 | 70.71851 | 23.86493 | 7351 ft | 144 kts | 60° |
| 2026-04-17 03:56 | 70.72254 | 23.89261 | 7351 ft | 144 kts | 60° |
| 2026-04-17 03:56 | 70.72658 | 23.92041 | 7350 ft | 144 kts | 60° |
| 2026-04-17 03:56 | 70.73061 | 23.94809 | 7346 ft | 144 kts | 60° |
| 2026-04-17 03:56 | 70.73462 | 23.97573 | 7346 ft | 144 kts | 60° |
| 2026-04-17 03:57 | 70.73864 | 24.00350 | 7350 ft | 144 kts | 60° |
| 2026-04-17 03:57 | 70.74266 | 24.03122 | 7349 ft | 144 kts | 60° |
| 2026-04-17 03:57 | 70.74666 | 24.05894 | 7348 ft | 144 kts | 60° |
| 2026-04-17 03:57 | 70.75067 | 24.08677 | 7348 ft | 144 kts | 60° |
| 2026-04-17 03:58 | 70.75467 | 24.11458 | 7351 ft | 144 kts | 60° |
| 2026-04-17 03:58 | 70.75867 | 24.14252 | 7347 ft | 145 kts | 60° |
| 2026-04-17 03:58 | 70.76267 | 24.17049 | 7351 ft | 145 kts | 60° |
| 2026-04-17 03:58 | 70.76662 | 24.19809 | 7349 ft | 145 kts | 60° |
| 2026-04-17 03:59 | 70.77063 | 24.22608 | 7349 ft | 145 kts | 60° |
| 2026-04-17 03:59 | 70.77455 | 24.25354 | 7349 ft | 145 kts | 60° |
| 2026-04-17 03:59 | 70.77856 | 24.28161 | 7349 ft | 145 kts | 60° |
| 2026-04-17 03:59 | 70.78256 | 24.30966 | 7351 ft | 145 kts | 60° |
| 2026-04-17 04:00 | 70.78657 | 24.33785 | 7352 ft | 145 kts | 60° |
| 2026-04-17 04:00 | 70.79058 | 24.36602 | 7355 ft | 146 kts | 60° |
| 2026-04-17 04:00 | 70.79459 | 24.39430 | 7372 ft | 145 kts | 61° |
| 2026-04-17 04:00 | 70.79858 | 24.42250 | 7370 ft | 145 kts | 61° |
| 2026-04-17 04:01 | 70.80257 | 24.45071 | 7377 ft | 146 kts | 61° |
| 2026-04-17 04:01 | 70.80659 | 24.47900 | 7372 ft | 146 kts | 61° |
| 2026-04-17 04:01 | 70.81058 | 24.50740 | 7376 ft | 146 kts | 61° |
| 2026-04-17 04:01 | 70.81460 | 24.53589 | 7373 ft | 146 kts | 61° |
| 2026-04-17 04:02 | 70.81860 | 24.56431 | 7370 ft | 146 kts | 61° |
| 2026-04-17 04:02 | 70.82258 | 24.59263 | 7370 ft | 146 kts | 61° |
| 2026-04-17 04:02 | 70.82653 | 24.62092 | 7366 ft | 145 kts | 61° |
| 2026-04-17 04:02 | 70.83047 | 24.64905 | 7374 ft | 145 kts | 61° |
| 2026-04-17 04:03 | 70.83444 | 24.67727 | 7374 ft | 145 kts | 61° |
| 2026-04-17 04:03 | 70.83843 | 24.70567 | 7308 ft | 149 kts | 61° |
| 2026-04-17 04:03 | 70.84261 | 24.73532 | 7195 ft | 153 kts | 62° |
| 2026-04-17 04:03 | 70.84681 | 24.76548 | 7065 ft | 157 kts | 62° |
| 2026-04-17 04:04 | 70.85104 | 24.79595 | 6911 ft | 153 kts | 62° |
| 2026-04-17 04:04 | 70.85503 | 24.82509 | 6767 ft | 149 kts | 62° |
| 2026-04-17 04:04 | 70.85901 | 24.85406 | 6612 ft | 148 kts | 62° |
| 2026-04-17 04:04 | 70.86300 | 24.88285 | 6456 ft | 147 kts | 62° |
| 2026-04-17 04:05 | 70.86698 | 24.91165 | 6293 ft | 147 kts | 62° |
| 2026-04-17 04:05 | 70.87095 | 24.94039 | 6135 ft | 147 kts | 62° |
| 2026-04-17 04:05 | 70.87491 | 24.96908 | 5972 ft | 147 kts | 62° |
| 2026-04-17 04:05 | 70.87884 | 24.99768 | 5812 ft | 146 kts | 63° |
| 2026-04-17 04:06 | 70.88268 | 25.02596 | 5647 ft | 142 kts | 63° |
| 2026-04-17 04:06 | 70.88625 | 25.05256 | 5489 ft | 128 kts | 62° |
| 2026-04-17 04:06 | 70.88952 | 25.07743 | 5327 ft | 124 kts | 62° |
| 2026-04-17 04:06 | 70.89271 | 25.10157 | 5178 ft | 122 kts | 62° |
| 2026-04-17 04:07 | 70.89592 | 25.12540 | 5021 ft | 121 kts | 62° |
| 2026-04-17 04:07 | 70.89907 | 25.14878 | 4860 ft | 120 kts | 62° |
| 2026-04-17 04:07 | 70.90228 | 25.17233 | 4704 ft | 120 kts | 61° |
| 2026-04-17 04:07 | 70.90553 | 25.19573 | 4550 ft | 119 kts | 61° |
| 2026-04-17 04:08 | 70.90873 | 25.21900 | 4383 ft | 119 kts | 61° |
| 2026-04-17 04:08 | 70.91191 | 25.24220 | 4222 ft | 118 kts | 61° |
| 2026-04-17 04:08 | 70.91506 | 25.26540 | 4059 ft | 118 kts | 62° |
| 2026-04-17 04:08 | 70.91819 | 25.28844 | 3885 ft | 117 kts | 62° |
| 2026-04-17 04:09 | 70.92131 | 25.31137 | 3738 ft | 117 kts | 62° |
| 2026-04-17 04:09 | 70.92440 | 25.33441 | 3572 ft | 117 kts | 62° |
| 2026-04-17 04:09 | 70.92748 | 25.35744 | 3404 ft | 117 kts | 62° |
| 2026-04-17 04:09 | 70.93052 | 25.38020 | 3243 ft | 114 kts | 62° |
| 2026-04-17 04:10 | 70.93349 | 25.40243 | 3106 ft | 113 kts | 61° |
| 2026-04-17 04:10 | 70.93647 | 25.42466 | 2992 ft | 113 kts | 62° |
| 2026-04-17 04:10 | 70.93945 | 25.44718 | 2899 ft | 115 kts | 62° |
| 2026-04-17 04:10 | 70.94251 | 25.47011 | 2797 ft | 117 kts | 61° |
| 2026-04-17 04:11 | 70.94567 | 25.49306 | 2644 ft | 117 kts | 61° |
| 2026-04-17 04:11 | 70.94878 | 25.51597 | 2485 ft | 116 kts | 62° |
| 2026-04-17 04:11 | 70.95174 | 25.53902 | 2358 ft | 116 kts | 62° |
| 2026-04-17 04:11 | 70.95476 | 25.56176 | 2220 ft | 115 kts | 60° |
| 2026-04-17 04:12 | 70.95785 | 25.58416 | 2075 ft | 114 kts | 61° |
| 2026-04-17 04:12 | 70.96088 | 25.60658 | 1944 ft | 114 kts | 61° |
| 2026-04-17 04:12 | 70.96385 | 25.62906 | 1803 ft | 113 kts | 62° |
| 2026-04-17 04:12 | 70.96676 | 25.65171 | 1704 ft | 116 kts | 64° |
| 2026-04-17 04:13 | 70.96969 | 25.67379 | 1694 ft | 107 kts | 60° |
| 2026-04-17 04:13 | 70.97265 | 25.69468 | 1747 ft | 112 kts | 60° |
| 2026-04-17 04:13 | 70.97586 | 25.71719 | 1755 ft | 119 kts | 61° |
| 2026-04-17 04:13 | 70.97903 | 25.74098 | 1754 ft | 122 kts | 63° |
| 2026-04-17 04:14 | 70.98217 | 25.76547 | 1756 ft | 125 kts | 63° |
| 2026-04-17 04:14 | 70.98539 | 25.79028 | 1714 ft | 125 kts | 63° |
| 2026-04-17 04:14 | 70.98854 | 25.81491 | 1732 ft | 124 kts | 64° |
| 2026-04-17 04:14 | 70.99140 | 25.83996 | 1751 ft | 125 kts | 63° |
| 2026-04-17 04:15 | 70.99472 | 25.86487 | 1768 ft | 128 kts | 62° |
| 2026-04-17 04:15 | 70.99831 | 25.89022 | 1786 ft | 131 kts | 61° |
| 2026-04-17 04:15 | 71.00205 | 25.91571 | 1739 ft | 125 kts | 60° |
| 2026-04-17 04:15 | 71.00523 | 25.93813 | 1669 ft | 107 kts | 59° |
| 2026-04-17 04:16 | 71.00844 | 25.95722 | 1583 ft | 99 kts | 55° |
| 2026-04-17 04:16 | 71.01200 | 25.97597 | 1331 ft | 103 kts | 53° |
| 2026-04-17 04:16 | 71.01579 | 25.99431 | 1105 ft | 98 kts | 53° |
| 2026-04-17 04:16 | 71.01945 | 26.01255 | 830 ft | 101 kts | 58° |
| 2026-04-17 04:17 | 71.01937 | 26.03075 | 839 ft | 80 kts | 127° |
| 2026-04-17 04:17 | 71.01425 | 26.03370 | 665 ft | 74 kts | 210° |
| 2026-04-17 04:17 | 71.01022 | 26.02245 | 388 ft | 81 kts | 248° |
| 2026-04-17 04:17 | 71.00946 | 26.00674 | 175 ft | 69 kts | 285° |
| 2026-04-17 04:18 | 71.00958 | 25.99264 | 60 ft | 62 kts | 284° |
| 2026-04-17 04:18 | 71.00963 | 25.98052 | 49 ft | 55 kts | 277° |
| 2026-04-17 04:18 | 71.00956 | 25.96672 | 163 ft | 70 kts | 281° |
| 2026-04-17 04:18 | 71.01220 | 25.95689 | 331 ft | 64 kts | 342° |
| 2026-04-17 04:19 | 71.01662 | 25.96015 | 461 ft | 74 kts | 38° |
| 2026-04-17 04:19 | 71.01817 | 25.97683 | 578 ft | 88 kts | 74° |
| 2026-04-17 04:19 | 71.01950 | 25.99501 | 601 ft | 81 kts | 79° |
| 2026-04-17 04:19 | 71.01963 | 26.01136 | 569 ft | 72 kts | 92° |
| 2026-04-17 04:20 | 71.01611 | 26.02324 | 482 ft | 81 kts | 163° |
| 2026-04-17 04:20 | 71.01092 | 26.02008 | 317 ft | 83 kts | 225° |
| 2026-04-17 04:20 | 71.00960 | 26.00481 | 176 ft | 76 kts | 274° |
| 2026-04-17 04:20 | 71.00964 | 25.98923 | 48 ft | 66 kts | 279° |
| 2026-04-17 04:21 | 71.00968 | 25.97794 | 33 ft | 33 kts | 274° |
| 2026-04-17 04:21 | 71.00960 | 25.97208 | 31 ft | 18 kts | 262° |
| 2026-04-17 04:21 | 71.00974 | 25.97235 | 32 ft | 12 kts | 98° |
| 2026-04-17 04:21 | 71.00970 | 25.97551 | 34 ft | 3 kts | 94° |
| 2026-04-17 04:22 | 71.00971 | 25.97747 | 34 ft | 16 kts | 96° |
| 2026-04-17 04:22 | 71.00908 | 25.97818 | 35 ft | 0 kts | 194° |
| 2026-04-17 04:22 | 71.00890 | 25.97885 | 36 ft | 9 kts | 105° |
| 2026-04-17 04:22 | 71.00900 | 25.97952 | 36 ft | 5 kts | 2° |
| 2026-04-17 04:23 | 71.00901 | 25.97891 | 36 ft | 0 kts | 278° |
| 2026-04-17 04:23 | 71.00902 | 25.97879 | 36 ft | 0 kts | 269° |